createdAt,value
2022-09-18T00:00:57.617Z,1.20
2022-09-18T00:03:24.231Z,1.90
2022-09-18T00:05:50.838Z,1.93
2022-09-18T00:08:17.303Z,1.23
2022-09-18T00:10:45.588Z,1.20
2022-09-18T00:13:12.519Z,1.33
2022-09-18T00:15:38.984Z,1.40
2022-09-18T00:18:06.101Z,1.33
2022-09-18T00:20:36.794Z,2.00
2022-09-18T00:23:03.459Z,2.00
2022-09-18T00:25:32.087Z,1.43
2022-09-18T00:27:58.579Z,1.40
2022-09-18T00:30:25.050Z,1.30
2022-09-18T00:32:51.580Z,1.50
2022-09-18T00:35:18.255Z,1.90
2022-09-18T00:37:44.713Z,2.60
2022-09-18T00:40:11.205Z,1.67
2022-09-18T00:42:37.788Z,1.70
2022-09-18T00:45:04.471Z,1.67
2022-09-18T00:47:45.782Z,1.70
2022-09-18T00:50:20.356Z,1.70
2022-09-18T00:52:48.668Z,1.33
2022-09-18T00:55:16.074Z,2.37
2022-09-18T00:57:45.781Z,1.40
2022-09-18T01:00:12.571Z,1.40
2022-09-18T01:02:40.181Z,1.60
2022-09-18T01:05:07.977Z,1.07
2022-09-18T01:07:57.805Z,1.27
2022-09-18T01:10:24.247Z,1.57
2022-09-18T01:12:56.169Z,1.70
2022-09-18T01:15:41.635Z,1.83
2022-09-18T01:18:31.128Z,2.33
2022-09-18T01:21:14.383Z,1.93
2022-09-18T01:23:49.624Z,2.30
2022-09-18T01:26:34.489Z,2.13
2022-09-18T01:29:07.972Z,1.90
2022-09-18T01:31:38.470Z,1.70
2022-09-18T01:34:10.188Z,1.50
2022-09-18T01:36:39.843Z,2.00
2022-09-18T01:39:20.941Z,2.20
2022-09-18T01:41:51.298Z,1.90
2022-09-18T01:44:22.067Z,1.80
2022-09-18T01:46:49.634Z,2.40
2022-09-18T01:49:20.671Z,2.60
2022-09-18T01:51:49.465Z,1.97
2022-09-18T01:54:17.821Z,2.00
2022-09-18T01:56:50.397Z,2.23
2022-09-18T01:59:26.341Z,2.57
2022-09-18T02:02:03.745Z,2.10
2022-09-18T02:04:33.000Z,2.17
2022-09-18T02:07:31.847Z,1.80
2022-09-18T02:09:59.211Z,1.60
2022-09-18T02:12:28.337Z,2.03
2022-09-18T02:15:00.431Z,2.93
2022-09-18T02:17:37.885Z,2.03
2022-09-18T02:20:10.951Z,2.27
2022-09-18T02:22:38.431Z,2.60
2022-09-18T02:25:06.943Z,1.90
2022-09-18T02:27:34.073Z,2.03
2022-09-18T02:30:01.583Z,2.10
2022-09-18T02:32:28.204Z,1.87
2022-09-18T02:34:54.701Z,2.60
2022-09-18T02:37:40.146Z,2.20
2022-09-18T02:40:07.857Z,2.93
2022-09-18T02:42:40.381Z,2.43
2022-09-18T02:45:11.309Z,2.30
2022-09-18T02:47:47.163Z,2.50
2022-09-18T02:50:28.439Z,2.50
2022-09-18T02:53:13.017Z,2.00
2022-09-18T02:55:55.808Z,1.90
2022-09-18T02:58:29.424Z,2.73
2022-09-18T03:00:57.636Z,2.40
2022-09-18T03:03:29.942Z,2.73
2022-09-18T03:06:01.036Z,2.60
2022-09-18T03:08:27.511Z,2.50
2022-09-18T03:10:54.291Z,2.47
2022-09-18T03:13:21.192Z,3.00
2022-09-18T03:15:47.874Z,2.03
2022-09-18T03:18:14.373Z,2.20
2022-09-18T03:20:42.640Z,2.40
2022-09-18T03:23:10.166Z,2.20
2022-09-18T03:25:36.823Z,2.90
2022-09-18T03:28:04.155Z,2.67
2022-09-18T03:30:36.454Z,2.87
2022-09-18T03:33:03.249Z,2.83
2022-09-18T03:35:32.230Z,1.80
2022-09-18T03:37:58.729Z,1.90
2022-09-18T03:40:29.380Z,2.20
2022-09-18T03:42:56.616Z,2.00
2022-09-18T03:45:24.927Z,2.90
2022-09-18T03:47:51.854Z,2.27
2022-09-18T03:50:19.179Z,1.60
2022-09-18T03:52:51.350Z,2.33
2022-09-18T03:55:48.799Z,2.07
2022-09-18T03:58:20.952Z,1.90
2022-09-18T04:01:06.954Z,2.30
2022-09-18T04:03:51.947Z,2.80
2022-09-18T04:06:36.906Z,2.07
2022-09-18T04:09:29.098Z,3.13
2022-09-18T04:11:55.633Z,3.20
2022-09-18T04:14:25.635Z,2.30
2022-09-18T04:16:56.104Z,2.40
2022-09-18T04:19:22.621Z,2.90
2022-09-18T04:21:49.316Z,2.63
2022-09-18T04:24:16.926Z,2.53
2022-09-18T04:26:44.111Z,2.10
2022-09-18T04:29:10.988Z,2.70
2022-09-18T04:34:35.672Z,3.23
2022-09-18T04:37:05.799Z,4.30
2022-09-18T04:39:36.499Z,2.33
2022-09-18T07:18:42.268Z,2.90
2022-09-18T07:21:11.035Z,2.90
2022-09-18T07:23:39.660Z,4.07
2022-09-18T07:26:06.508Z,3.70
2022-09-18T07:28:34.398Z,3.50
2022-09-18T07:31:13.607Z,1.80
2022-09-18T07:33:42.410Z,3.10
2022-09-18T07:36:14.996Z,3.20
2022-09-18T07:38:43.101Z,3.23
2022-09-18T07:41:11.252Z,2.43
2022-09-18T07:43:42.787Z,2.40
2022-09-18T07:46:10.157Z,1.60
2022-09-18T07:48:38.798Z,2.60
2022-09-18T07:51:21.958Z,1.90
2022-09-18T07:53:53.085Z,1.80
2022-09-18T07:56:29.284Z,2.00
2022-09-18T07:58:56.259Z,1.80
2022-09-18T08:01:27.337Z,2.27
2022-09-18T08:03:57.058Z,3.40
2022-09-18T08:06:36.216Z,3.57
2022-09-18T08:09:25.350Z,1.70
2022-09-18T08:12:15.265Z,1.97
2022-09-18T08:14:55.606Z,1.63
2022-09-18T08:17:34.396Z,1.30
2022-09-18T08:20:19.723Z,1.57
2022-09-18T08:22:52.275Z,1.50
2022-09-18T08:25:23.261Z,2.30
2022-09-18T08:27:50.479Z,2.50
2022-09-18T08:30:27.193Z,1.97
2022-09-18T08:33:05.071Z,2.60
2022-09-18T08:35:32.349Z,2.60
2022-09-18T08:38:07.975Z,2.70
2022-09-18T08:41:06.481Z,2.67
2022-09-18T08:43:42.552Z,2.13
2022-09-18T08:46:15.177Z,2.20
2022-09-18T08:49:04.754Z,2.57
2022-09-18T08:51:37.590Z,2.10
2022-09-18T08:54:53.571Z,2.27
2022-09-18T08:57:37.588Z,2.07
2022-09-18T09:00:31.430Z,2.27
2022-09-18T09:03:52.419Z,2.70
2022-09-18T09:06:41.884Z,2.77
2022-09-18T09:09:26.555Z,2.60
2022-09-18T09:12:07.298Z,2.03
2022-09-18T09:14:56.164Z,1.90
2022-09-18T09:17:37.602Z,2.60
2022-09-18T09:20:21.401Z,1.93
2022-09-18T09:23:07.800Z,1.90
2022-09-18T09:25:47.867Z,3.60
2022-09-18T09:28:46.563Z,1.73
2022-09-18T09:31:39.456Z,1.80
2022-09-18T09:34:37.070Z,1.93
2022-09-18T09:37:23.983Z,2.40
2022-09-18T09:40:00.007Z,2.10
2022-09-18T09:42:38.927Z,1.80
2022-09-18T09:45:16.363Z,2.20
2022-09-18T09:47:51.092Z,2.17
2022-09-18T09:50:30.133Z,2.20
2022-09-18T09:53:01.905Z,1.20
2022-09-18T09:55:42.368Z,1.50
2022-09-18T09:58:21.817Z,2.27
2022-09-18T10:01:04.891Z,2.20
2022-09-18T10:03:40.986Z,4.37
2022-09-18T10:06:27.513Z,2.90
2022-09-18T10:09:10.148Z,1.83
2022-09-18T10:11:40.959Z,3.70
2022-09-18T10:14:16.763Z,2.23
2022-09-18T10:16:48.705Z,2.03
2022-09-18T10:19:21.502Z,4.40
2022-09-18T10:21:52.872Z,2.90
2022-09-18T10:24:30.019Z,1.70
2022-09-18T10:27:06.081Z,3.07
2022-09-18T10:29:35.720Z,2.40
2022-09-18T10:32:04.478Z,3.40
2022-09-18T10:34:45.702Z,2.47
2022-09-18T10:37:18.655Z,4.00
2022-09-18T10:39:57.576Z,3.00
2022-09-18T10:42:27.326Z,2.63
2022-09-18T10:45:05.027Z,1.50
2022-09-18T10:47:36.793Z,2.30
2022-09-18T10:50:06.485Z,2.10
2022-09-18T10:52:46.508Z,1.73
2022-09-18T10:55:24.854Z,1.70
2022-09-18T10:58:06.157Z,1.60
2022-09-18T11:00:38.354Z,2.07
2022-09-18T11:03:37.952Z,1.97
2022-09-18T11:06:09.504Z,1.60
2022-09-18T11:08:42.632Z,2.03
2022-09-18T11:11:29.077Z,1.63
2022-09-18T11:14:04.375Z,1.60
2022-09-18T11:16:43.762Z,1.63
2022-09-18T11:19:12.560Z,2.13
2022-09-18T11:22:04.310Z,2.40
2022-09-18T11:24:38.562Z,1.90
2022-09-18T11:27:22.143Z,1.90
2022-09-18T11:29:51.727Z,1.77
2022-09-18T11:32:25.378Z,2.40
2022-09-18T11:35:02.436Z,2.40
2022-09-18T11:37:40.004Z,1.57
2022-09-18T11:40:24.370Z,2.07
2022-09-18T11:42:54.118Z,1.20
2022-09-18T11:45:45.808Z,1.90
2022-09-18T11:48:25.260Z,1.90
2022-09-18T11:50:56.330Z,1.70
2022-09-18T11:53:27.838Z,1.83
2022-09-18T11:56:02.506Z,1.60
2022-09-18T11:58:36.995Z,1.93
2022-09-18T12:01:34.865Z,1.70
2022-09-18T12:04:17.616Z,1.57
2022-09-18T12:07:02.812Z,1.33
2022-09-18T12:09:42.731Z,1.57
2022-09-18T12:12:21.830Z,1.00
2022-09-18T12:15:09.541Z,1.30
2022-09-18T12:17:45.183Z,1.27
2022-09-18T12:20:40.257Z,1.47
2022-09-18T12:23:14.898Z,1.20
2022-09-18T12:26:01.319Z,1.20
2022-09-18T12:28:57.747Z,1.00
2022-09-18T12:31:55.447Z,1.27
2022-09-18T12:34:31.072Z,1.50
2022-09-18T12:37:09.841Z,1.30
2022-09-18T12:39:43.272Z,1.30
2022-09-18T12:42:51.803Z,1.13
2022-09-18T12:45:49.473Z,1.20
2022-09-18T12:48:44.309Z,0.87
2022-09-18T12:51:41.611Z,1.10
2022-09-18T12:54:11.138Z,0.80
2022-09-18T12:56:54.715Z,1.07
2022-09-18T12:59:52.388Z,1.27
2022-09-18T13:02:41.202Z,1.50
2022-09-18T13:05:37.380Z,1.90
2022-09-18T13:08:11.199Z,1.63
2022-09-18T13:10:42.933Z,4.30
2022-09-18T13:13:21.865Z,2.40
2022-09-18T13:16:03.547Z,1.30
2022-09-18T13:18:59.376Z,3.03
2022-09-18T13:21:31.108Z,1.73
2022-09-18T13:23:59.599Z,2.37
2022-09-18T13:26:30.753Z,1.50
2022-09-18T13:28:57.510Z,1.30
2022-09-18T13:31:30.443Z,1.77
2022-09-18T13:34:06.014Z,1.20
2022-09-18T13:36:38.545Z,1.20
2022-09-18T13:39:15.421Z,1.50
2022-09-18T13:41:49.227Z,1.60
2022-09-18T13:44:23.427Z,1.10
2022-09-18T13:46:53.234Z,1.23
2022-09-18T13:49:30.406Z,1.20
2022-09-18T13:52:35.062Z,1.63
2022-09-18T13:55:13.977Z,1.40
2022-09-18T13:57:41.855Z,3.30
2022-09-18T14:00:20.632Z,1.87
2022-09-18T14:03:11.367Z,3.80
2022-09-18T14:05:39.775Z,1.60
2022-09-18T14:08:22.299Z,2.00
2022-09-18T14:11:05.436Z,2.47
2022-09-18T14:13:39.380Z,1.50
2022-09-18T14:16:25.542Z,2.20
2022-09-18T14:19:02.879Z,1.87
2022-09-18T14:21:39.927Z,2.10
2022-09-18T14:24:18.530Z,1.40
2022-09-18T14:26:45.221Z,1.50
2022-09-18T14:29:14.928Z,1.30
2022-09-18T14:31:44.825Z,2.30
2022-09-18T14:34:32.621Z,1.53
2022-09-18T14:37:02.243Z,2.40
2022-09-18T14:39:36.034Z,3.13
2022-09-18T14:42:41.272Z,2.47
2022-09-18T14:45:11.011Z,2.20
2022-09-18T14:47:38.337Z,3.13
2022-09-18T14:50:31.405Z,2.20
2022-09-18T14:53:01.118Z,2.30
2022-09-18T14:55:40.732Z,1.73
2022-09-18T14:58:12.660Z,3.10
2022-09-18T15:00:39.539Z,2.43
2022-09-18T15:03:20.921Z,2.30
2022-09-18T15:05:51.233Z,1.70
2022-09-18T15:08:26.342Z,1.70
2022-09-18T15:10:53.583Z,1.87
2022-09-18T15:13:22.131Z,1.70
2022-09-18T15:16:01.486Z,2.37
2022-09-18T15:18:29.766Z,2.90
2022-09-18T15:20:59.313Z,3.57
2022-09-18T15:23:33.009Z,1.97
2022-09-18T15:26:02.738Z,2.30
2022-09-18T15:28:33.487Z,2.10
2022-09-18T15:31:08.389Z,2.20
2022-09-18T15:33:37.823Z,2.87
2022-09-18T15:36:05.239Z,1.93
2022-09-18T15:38:52.744Z,1.80
2022-09-18T15:41:29.369Z,2.33
2022-09-18T15:43:56.175Z,2.10
2022-09-18T15:46:31.833Z,2.33
2022-09-18T15:49:00.973Z,2.23
2022-09-18T15:51:35.889Z,2.10
2022-09-18T15:54:09.276Z,2.20
2022-09-18T15:56:39.296Z,2.50
2022-09-18T15:59:22.571Z,2.00
2022-09-18T16:01:49.420Z,2.27
2022-09-18T16:04:28.576Z,2.50
2022-09-18T16:07:06.546Z,2.43
2022-09-18T16:09:40.337Z,2.37
2022-09-18T16:12:31.333Z,2.10
2022-09-18T16:15:21.055Z,2.00
2022-09-18T16:17:50.716Z,1.47
2022-09-18T16:20:34.581Z,2.47
2022-09-18T16:23:33.798Z,2.00
2022-09-18T16:26:13.466Z,2.50
2022-09-18T16:28:44.070Z,2.23
2022-09-18T16:31:13.103Z,4.00
2022-09-18T16:33:50.664Z,2.90
2022-09-18T16:36:33.151Z,2.13
2022-09-18T16:39:02.318Z,2.40
2022-09-18T16:41:30.439Z,1.80
2022-09-18T16:43:57.367Z,2.70
2022-09-18T16:46:50.760Z,2.03
2022-09-18T16:49:21.572Z,1.87
2022-09-18T16:51:48.623Z,1.43
2022-09-18T16:54:15.335Z,1.73
2022-09-18T16:56:48.915Z,1.93
2022-09-18T16:59:16.027Z,2.67
2022-09-18T17:02:03.370Z,2.67
2022-09-18T17:04:31.537Z,2.80
2022-09-18T17:06:58.225Z,2.30
2022-09-18T17:09:25.025Z,1.97
2022-09-18T17:11:52.882Z,1.80
2022-09-18T17:14:20.068Z,2.57
2022-09-18T17:16:47.143Z,2.13
2022-09-18T17:19:14.559Z,2.37
2022-09-18T17:21:41.624Z,2.50
2022-09-18T17:24:09.055Z,2.07
2022-09-18T17:26:36.711Z,1.73
2022-09-18T17:29:03.705Z,1.97
2022-09-18T17:31:30.431Z,1.87
2022-09-18T17:33:57.104Z,1.97
2022-09-18T17:36:23.779Z,1.80
2022-09-18T17:38:50.497Z,1.50
2022-09-18T17:41:19.391Z,1.30
2022-09-18T17:43:53.087Z,1.63
2022-09-18T17:46:20.409Z,1.20
2022-09-18T17:48:47.124Z,0.93
2022-09-18T17:51:18.549Z,1.00
2022-09-18T17:53:47.865Z,0.70
2022-09-18T17:56:20.039Z,0.80
2022-09-18T17:58:54.185Z,0.80
2022-09-18T18:01:21.036Z,0.83
2022-09-18T18:03:48.506Z,1.10
2022-09-18T18:06:21.131Z,0.83
2022-09-18T18:08:48.266Z,0.70
2022-09-18T18:11:16.746Z,0.90
2022-09-18T18:13:44.936Z,0.80
2022-09-18T18:16:17.224Z,0.90
2022-09-18T18:18:43.928Z,0.90
2022-09-18T18:21:11.114Z,0.90
2022-09-18T18:23:38.496Z,0.70
2022-09-18T18:26:08.630Z,0.80
2022-09-18T18:28:37.474Z,0.87
2022-09-18T18:31:11.427Z,0.93
2022-09-18T18:33:39.810Z,1.30
2022-09-18T18:36:16.953Z,1.43
2022-09-18T18:38:48.079Z,1.00
2022-09-18T18:41:16.163Z,0.87
2022-09-18T18:43:42.888Z,1.03
2022-09-18T18:46:13.916Z,0.87
2022-09-18T18:48:41.852Z,1.10
2022-09-18T18:51:12.307Z,1.03
2022-09-18T18:53:38.996Z,0.70
2022-09-18T18:56:11.832Z,1.20
2022-09-18T18:58:39.115Z,0.90
2022-09-18T19:01:09.197Z,0.90
2022-09-18T19:03:41.895Z,1.50
2022-09-18T19:06:09.911Z,1.00
2022-09-18T19:08:37.303Z,1.00
2022-09-18T19:11:06.715Z,1.10
2022-09-18T19:13:41.361Z,1.07
2022-09-18T19:16:08.298Z,1.20
2022-09-18T19:18:35.698Z,0.90
2022-09-18T19:21:02.375Z,1.07
2022-09-18T19:23:29.068Z,0.80
2022-09-18T19:25:58.096Z,0.77
2022-09-18T19:28:24.747Z,0.90
2022-09-18T19:30:53.730Z,0.80
2022-09-18T19:33:22.998Z,1.10
2022-09-18T19:35:50.328Z,0.93
2022-09-18T19:38:20.375Z,0.97
2022-09-18T19:40:50.667Z,1.23
2022-09-18T19:43:31.280Z,0.97
2022-09-18T19:45:58.526Z,1.10
2022-09-18T19:48:27.075Z,0.80
2022-09-18T19:50:54.046Z,1.00
2022-09-18T19:53:20.942Z,0.87
2022-09-18T19:55:47.709Z,1.10
2022-09-18T19:58:16.394Z,1.00
2022-09-18T20:00:46.648Z,0.80
2022-09-18T20:03:14.575Z,1.23
2022-09-18T20:05:43.019Z,1.00
2022-09-18T20:08:10.120Z,1.90
2022-09-18T20:10:39.082Z,0.80
2022-09-18T20:13:10.002Z,1.00
2022-09-18T20:15:36.627Z,0.90
2022-09-18T20:18:05.690Z,0.70
2022-09-18T20:20:35.013Z,1.00
2022-09-18T20:23:01.590Z,1.03
2022-09-18T20:25:28.392Z,1.20
2022-09-18T20:27:54.986Z,0.80
2022-09-18T20:30:21.741Z,1.20
2022-09-18T20:32:48.847Z,1.00
2022-09-18T20:35:15.576Z,0.87
2022-09-18T20:37:42.223Z,0.90
2022-09-18T20:40:13.371Z,0.90
2022-09-18T20:42:40.107Z,1.07
2022-09-18T20:45:07.356Z,1.10
2022-09-18T20:47:36.555Z,0.80
2022-09-18T20:50:08.903Z,0.90
2022-09-18T20:52:43.060Z,0.80
2022-09-18T20:55:15.419Z,1.30
2022-09-18T20:57:44.490Z,1.10
2022-09-18T21:00:12.591Z,0.83
2022-09-18T21:02:39.970Z,0.70
2022-09-18T21:05:11.500Z,1.07
2022-09-18T21:07:38.166Z,0.87
2022-09-18T21:10:06.344Z,1.13
2022-09-18T21:12:38.297Z,0.97
2022-09-18T21:15:11.775Z,1.27
2022-09-18T21:17:38.584Z,1.00
2022-09-18T21:20:06.475Z,0.90
2022-09-18T21:22:33.328Z,1.00
2022-09-18T21:24:59.956Z,1.03
2022-09-18T21:27:26.987Z,1.20
2022-09-18T21:29:57.808Z,0.97
2022-09-18T21:32:24.374Z,1.40
2022-09-18T21:34:52.752Z,0.93
2022-09-18T21:37:19.491Z,1.00
2022-09-18T21:39:46.213Z,1.60
2022-09-18T21:42:12.839Z,1.27
2022-09-18T21:44:39.667Z,1.10
2022-09-18T21:47:10.690Z,1.10
2022-09-18T21:49:37.313Z,1.17
2022-09-18T21:52:06.799Z,1.10
2022-09-18T21:54:33.907Z,1.07
2022-09-18T21:57:01.384Z,1.43
2022-09-18T21:59:35.445Z,1.17
2022-09-18T22:02:06.114Z,0.90
2022-09-18T22:04:33.873Z,0.97
2022-09-18T22:07:01.801Z,0.83
2022-09-18T22:09:35.907Z,1.30
2022-09-18T22:12:02.827Z,0.93
2022-09-18T22:14:32.385Z,1.00
2022-09-18T22:17:01.393Z,1.00
2022-09-18T22:19:29.256Z,1.00
2022-09-18T22:21:56.146Z,1.10
2022-09-18T22:24:24.985Z,1.00
2022-09-18T22:26:55.260Z,1.17
2022-09-18T22:29:25.065Z,1.13
2022-09-18T22:31:52.173Z,1.40
2022-09-18T22:34:21.424Z,1.10
2022-09-18T22:36:48.543Z,1.30
2022-09-18T22:39:16.733Z,0.87
2022-09-18T22:41:44.178Z,1.23
2022-09-18T22:44:11.809Z,1.23
2022-09-18T22:46:40.447Z,1.00
2022-09-18T22:49:08.789Z,0.90
2022-09-18T22:51:35.426Z,0.80
2022-09-18T22:54:07.449Z,0.93
2022-09-18T22:56:38.770Z,1.10
2022-09-18T22:59:05.696Z,1.10
2022-09-18T23:01:33.861Z,1.20
2022-09-18T23:04:03.679Z,1.20
2022-09-18T23:06:33.314Z,1.03
2022-09-18T23:09:01.042Z,1.30
2022-09-18T23:11:30.208Z,1.00
2022-09-18T23:13:59.571Z,1.30
2022-09-18T23:16:28.067Z,0.93
2022-09-18T23:18:58.436Z,0.90
2022-09-18T23:21:27.098Z,0.97
2022-09-18T23:23:56.240Z,1.10
2022-09-18T23:26:28.881Z,1.00
2022-09-18T23:28:59.986Z,1.10
2022-09-18T23:31:32.205Z,1.00
2022-09-18T23:34:01.625Z,0.90
2022-09-18T23:36:35.749Z,1.17
2022-09-18T23:39:06.590Z,1.17
2022-09-18T23:41:34.432Z,1.13
2022-09-18T23:44:02.497Z,1.20
2022-09-18T23:46:29.464Z,0.80
2022-09-18T23:48:56.097Z,0.90
2022-09-18T23:51:28.134Z,0.90
2022-09-18T23:53:56.848Z,1.30
2022-09-18T23:56:24.111Z,1.00
2022-09-18T23:59:01.208Z,1.30
